CW3583 Weather Reports


Display with metric or nautical units.
time (UTC)temp
F
wind
direction
speed
MPH
gust
MPH
rain 1hr
in
rain 24hr
in
rain mn
in
humidity
%
barometer
mb
20240621142450 64 340 10.0 14.0 0.00 0.33 0.31 80 1024.0
20240621140950 65 334 9.0 14.0 0.00 0.33 0.31 81 1024.1
20240621135950 65 312 10.0 14.0 0.00 0.33 0.31 80 1024.2
20240621135450 65 340 10.0 15.0 0.00 0.33 0.31 81 1024.1
20240621133451 65 2 9.0 13.0 0.00 0.33 0.31 81 1024.2
20240621132950 65 349 12.0 15.0 0.00 0.33 0.31 80 1024.1
20240621125949 65 329 9.0 13.0 0.00 0.33 0.31 82 1024.3
20240621122450 65 337 7.0 12.0 0.00 0.33 0.31 83 1024.4
20240621121450 65 281 9.0 15.0 0.00 0.33 0.31 82 1024.4
20240621115950 64 266 7.0 10.0 0.00 0.33 0.31 83 1024.5
20240621115449 64 273 8.0 12.0 0.00 0.33 0.31 83 1024.5
20240621113451 63 300 6.0 13.0 0.00 0.33 0.31 85 1024.6
20240621112451 63 288 6.0 12.0 0.00 0.33 0.31 85 1024.6
20240621111952 64 289 9.0 14.0 0.00 0.33 0.31 84 1024.6
20240621105449 64 259 9.0 17.0 0.00 0.33 0.31 84 1024.4
20240621104450 64 275 9.0 17.0 0.00 0.33 0.31 84 1024.3
20240621102449 64 282 13.0 20.0 0.00 0.33 0.31 84 1024.3
20240621101450 64 273 7.0 15.0 0.00 0.33 0.31 85 1024.2
20240621095950 64 282 13.0 21.0 0.00 0.33 0.31 85 1024.1
20240621095450 64 282 8.0 22.0 0.00 0.33 0.31 85 1024.1
20240621093950 64 260 6.0 20.0 0.00 0.33 0.31 86 1024.0
20240621093451 64 266 10.0 17.0 0.00 0.33 0.31 86 1024.0
20240621092950 63 264 12.0 21.0 0.00 0.33 0.31 86 1023.9
20240621092450 64 275 10.0 18.0 0.00 0.33 0.31 86 1023.8
20240621090949 63 262 10.0 16.0 0.00 0.33 0.31 87 1023.6
20240621084951 63 279 9.0 20.0 0.00 0.33 0.31 88 1023.4
20240621083452 63 302 9.0 14.0 0.00 0.33 0.31 89 1023.4
20240621082450 62 275 10.0 17.0 0.00 0.33 0.31 90 1023.4
20240621075845 61 250 7.0 18.0 0.01 0.33 0.31 92 1023.3
20240621075312 61 263 10.0 14.0 0.01 0.33 0.31 92 1023.3
20240621074951 61 269 9.0 13.0 0.01 0.33 0.31 92 1023.2
20240621073950 61 257 8.0 13.0 0.01 0.33 0.31 92 1023.2
20240621072450 61 251 9.0 18.0 0.04 0.33 0.31 92 1023.0
20240621070950 61 248 7.0 17.0 0.08 0.33 0.31 92 1022.9
20240621064952 61 269 9.0 17.0 0.08 0.32 0.31 92 1022.8
20240621063950 61 255 9.0 20.0 0.13 0.32 0.31 92 1022.6
20240621062950 61 254 11.0 18.0 0.12 0.31 0.30 92 1022.4
20240621060451 61 249 11.0 17.0 0.06 0.25 0.24 92 1022.2
20240621052450 61 261 9.0 22.0 0.00 0.20 0.18 91 1021.8
20240621050950 61 260 12.0 20.0 0.01 0.20 0.18 91 1021.7
20240621043950 61 259 12.0 17.0 0.01 0.20 0.18 92 1021.5
20240621043451 61 262 11.0 21.0 0.01 0.20 0.18 92 1021.5
20240621042449 61 262 11.0 22.0 0.01 0.20 0.18 92 1021.4
20240621034449 61 262 12.0 22.0 0.06 0.19 0.17 92 1021.0
20240621030451 62 246 11.0 20.0 0.09 0.17 0.15 92 1020.8
20240621025450 61 250 9.0 18.0 0.09 0.16 0.14 92 1020.8
20240621023452 61 237 11.0 18.0 0.06 0.11 0.09 91 1020.9
20240621022950 61 263 12.0 18.0 0.05 0.10 0.09 91 1020.9
20240621021449 61 254 14.0 20.0 0.02 0.08 0.06 91 1020.8
20240621020950 61 244 10.0 18.0 0.02 0.08 0.06 91 1020.8
20240621013452 62 227 12.0 20.0 0.00 0.06 0.04 90 1020.7
20240621002450 62 250 10.0 21.0 0.04 0.06 0.04 88 1020.6
20240621001450 62 257 10.0 20.0 0.02 0.04 0.02 86 1020.5
20240621000453 64 310 10.0 20.0 0.00 0.02 0.00 82 1020.4
20240620234450 64 263 9.0 18.0 0.00 0.02 0.00 82 1020.4
20240620233950 64 258 7.0 14.0 0.00 0.02 0.00 82 1020.5
20240620232949 64 255 11.0 22.0 0.00 0.02 0.00 82 1020.4
20240620231951 64 267 11.0 21.0 0.00 0.02 0.00 82 1020.3
20240620231449 64 257 9.0 16.0 0.00 0.02 0.00 82 1020.4
20240620224951 63 243 9.0 17.0 0.00 0.02 0.00 83 1020.4
20240620223452 63 247 10.0 18.0 0.00 0.02 0.00 84 1020.3
20240620215449 62 259 9.0 16.0 0.02 0.02 0.02 87 1020.6
20240620214449 62 241 10.0 16.0 0.02 0.02 0.02 85 1020.6
20240620213950 63 243 12.0 20.0 0.01 0.01 0.01 84 1020.6
20240620213451 63 279 12.0 20.0 0.00 0.00 0.00 82 1020.6
20240620210950 64 274 9.0 20.0 0.00 0.00 0.00 80 1020.4
20240620210451 64 264 9.0 17.0 0.00 0.00 0.00 80 1020.4
20240620204952 64 271 8.0 20.0 0.00 0.00 0.00 80 1020.2
20240620204450 64 251 9.0 18.0 0.00 0.00 0.00 80 1020.2
20240620203949 64 254 9.0 16.0 0.00 0.00 0.00 81 1020.2
20240620203451 64 286 9.0 18.0 0.00 0.00 0.00 81 1020.1
20240620201951 64 277 8.0 20.0 0.00 0.00 0.00 82 1020.0
20240620201449 64 253 11.0 20.0 0.00 0.00 0.00 82 1019.9
20240620195949 65 275 12.0 18.0 0.00 0.00 0.00 81 1019.9
20240620194952 65 235 9.0 20.0 0.00 0.00 0.00 81 1019.8
20240620185949 65 284 11.0 20.0 0.00 0.00 0.00 80 1019.1
20240620185450 64 284 11.0 24.0 0.00 0.00 0.00 80 1019.0
20240620184951 64 286 15.0 23.0 0.00 0.00 0.00 80 1019.1
20240620183451 64 227 13.0 21.0 0.00 0.00 0.00 80 1019.1
20240620182950 64 273 10.0 22.0 0.00 0.00 0.00 80 1019.1
20240620181952 64 284 11.0 23.0 0.00 0.00 0.00 80 1018.9
20240620180949 64 278 13.0 24.0 0.00 0.00 0.00 81 1018.8
20240620180452 64 282 10.0 25.0 0.00 0.00 0.00 82 1018.7
20240620175949 64 275 9.0 22.0 0.00 0.00 0.00 82 1018.7
20240620175449 64 271 14.0 21.0 0.00 0.00 0.00 83 1018.7
20240620174951 64 289 15.0 24.0 0.00 0.00 0.00 82 1018.6
20240620171449 64 265 14.0 23.0 0.00 0.00 0.00 84 1018.7
20240620170452 64 290 13.0 22.0 0.00 0.00 0.00 84 1018.7
20240620164951 64 276 10.0 20.0 0.00 0.00 0.00 83 1018.7
20240620161449 65 289 12.0 20.0 0.00 0.00 0.00 83 1018.9
20240620160451 65 314 11.0 21.0 0.00 0.00 0.00 83 1018.8
20240620155449 65 263 10.0 18.0 0.00 0.00 0.00 83 1018.7
20240620154952 65 277 9.0 18.0 0.00 0.00 0.00 83 1018.6
20240620150949 65 275 14.0 24.0 0.00 0.00 0.00 82 1018.2
20240620145949 65 289 10.0 23.0 0.00 0.00 0.00 84 1018.2
20240620144450 66 283 13.0 21.0 0.00 0.00 0.00 83 1018.1